الصفحة الرئيسية
METAR-TAF:

METAR-TAF

مطار :

مدينة بنما, بنما

دائرة عرض: 08-59N, خط طول: 079-31W, ارتفاع: 13 متر

مراقبة الطقس الحالي

تاريخ ووقت الإصدار 44 دقيقة قبل الساعة 02:00UTC
ريح 2 عقدةمن اتجاهات متغيرة
درجة الحرارة 24°درجة مئوية
الرطوبة 94%
ضغط 1012 hPa
الرؤية 10 كم أو أكثر
غيوم قليلة على ارتفاع 1600 قدم
غيوم متفرقة على ارتفاع 8000 قدم

METAR: MPMG 230200Z VRB02KT 9999 FEW016 SCT080 24/23 Q1012 RWY WET NOSIG

زمن: 21:44 (02:44 UTC)

توقعات

تاريخ ووقت الإصدار 3ساعات و 44 دقيقة قبل الساعة 23:00UTC
التوقعات صالحة من23 الساعة 00 UTC إلى 23 الساعة 12 UTC
ريح 5 عقدة من الشمال الغربي
الرؤية: 6000 متر
غيوم متفرقة على ارتفاع 1600 قدم, مزنة ركامية.
غيوم مفككة على ارتفاع 9000 قدم
مطر
أصبح
من 23 الساعة 05 UTC إلى 23 الساعة 09 UTC
ريح 2 عقدةمن اتجاهات متغيرة
الرؤية 10 كم أو أكثر
غيوم متفرقة على ارتفاع 2000 قدم
غيوم متفرقة على ارتفاع 8000 قدم

TAF: MPMG 222300Z 2300/2312 31005KT 6000 RA SCT016CB BKN090 BECMG 2305/2309 VRB02KT 9999 NSW SCT020 SCT080

أرصاد الطقس والتوقعات من أكثر من 4000 مطار (تقارير الطقس للمطار METAR والتنبؤ بالطقس بالمطارTAF).

المحطات المتاحة هي النقط الصفراء والحمراء على الخريطة.

حرك المؤشر فوق النقطة لمعرفة اسم المحطة.

ثم انقر لمعرفة أرصاد وتوقعات الطقس.

لتغيير الخارطة: اضغط على الأزرار الخضراء مع رمز الصليب الأسود للتكبير. على الزر الأخضر مع شرطة للتصغير، أو على الأسهم الخضراء للخرائط المجاورة.


METAR-TAF: